sensor_id;sensor_type;location;lat;lon;timestamp;pressure;altitude;pressure_sealevel;temperature;humidity
818;BME280;391;51.052;6.954;2023-07-31T00:01:21;100542.06;;;16.87;100.00
818;BME280;391;51.052;6.954;2023-07-31T00:03:25;100532.41;;;16.83;100.00
818;BME280;391;51.052;6.954;2023-07-31T00:05:29;100541.16;;;16.91;100.00
818;BME280;391;51.052;6.954;2023-07-31T00:07:32;100534.16;;;16.89;100.00
818;BME280;391;51.052;6.954;2023-07-31T00:09:36;100535.03;;;16.91;100.00
818;BME280;391;51.052;6.954;2023-07-31T00:11:40;100529.78;;;16.94;100.00
818;BME280;391;51.052;6.954;2023-07-31T00:13:44;100439.34;;;16.42;100.00
818;BME280;391;51.052;6.954;2023-07-31T00:15:48;100537.66;;;16.97;100.00
818;BME280;391;51.052;6.954;2023-07-31T00:17:51;100549.94;;;16.95;100.00
818;BME280;391;51.052;6.954;2023-07-31T00:19:55;100535.03;;;16.97;100.00
818;BME280;391;51.052;6.954;2023-07-31T00:21:58;100543.81;;;16.99;100.00
818;BME280;391;51.052;6.954;2023-07-31T00:24:02;100481.47;;;16.57;100.00
818;BME280;391;51.052;6.954;2023-07-31T00:26:06;100549.09;;;17.04;100.00
818;BME280;391;51.052;6.954;2023-07-31T00:28:09;100546.41;;;16.98;100.00
818;BME280;391;51.052;6.954;2023-07-31T00:30:13;100526.25;;;16.89;100.00
818;BME280;391;51.052;6.954;2023-07-31T00:32:17;100538.56;;;17.01;100.00
818;BME280;391;51.052;6.954;2023-07-31T00:34:21;100541.16;;;16.98;100.00
818;BME280;391;51.052;6.954;2023-07-31T00:36:25;100535.03;;;16.97;100.00
818;BME280;391;51.052;6.954;2023-07-31T00:38:28;100546.47;;;17.01;100.00
818;BME280;391;51.052;6.954;2023-07-31T00:40:34;100536.78;;;16.98;100.00
818;BME280;391;51.052;6.954;2023-07-31T00:42:39;100542.03;;;16.98;100.00
818;BME280;391;51.052;6.954;2023-07-31T00:44:43;100542.06;;;17.03;100.00
818;BME280;391;51.052;6.954;2023-07-31T00:46:46;100542.06;;;17.03;100.00
818;BME280;391;51.052;6.954;2023-07-31T00:48:52;100542.91;;;17.02;100.00
818;BME280;391;51.052;6.954;2023-07-31T00:50:55;100528.00;;;17.05;100.00
818;BME280;391;51.052;6.954;2023-07-31T00:52:59;100505.16;;;16.89;100.00
818;BME280;391;51.052;6.954;2023-07-31T00:55:03;100535.03;;;17.09;100.00
818;BME280;391;51.052;6.954;2023-07-31T00:57:07;100533.25;;;17.11;100.00
818;BME280;391;51.052;6.954;2023-07-31T00:59:10;100532.38;;;17.09;100.00
818;BME280;391;51.052;6.954;2023-07-31T01:01:15;100528.00;;;17.10;100.00
818;BME280;391;51.052;6.954;2023-07-31T01:03:19;100520.06;;;17.14;100.00
818;BME280;391;51.052;6.954;2023-07-31T01:05:30;100522.72;;;17.19;100.00
818;BME280;391;51.052;6.954;2023-07-31T01:07:42;100507.81;;;17.10;100.00
818;BME280;391;51.052;6.954;2023-07-31T01:09:54;100512.19;;;17.10;100.00
818;BME280;391;51.052;6.954;2023-07-31T01:12:03;100513.06;;;17.12;100.00
818;BME280;391;51.052;6.954;2023-07-31T01:14:08;100512.19;;;17.10;100.00
818;BME280;391;51.052;6.954;2023-07-31T01:16:11;100509.56;;;17.10;100.00
818;BME280;391;51.052;6.954;2023-07-31T01:18:16;100502.53;;;17.06;100.00
818;BME280;391;51.052;6.954;2023-07-31T01:20:22;100506.03;;;17.11;100.00
818;BME280;391;51.052;6.954;2023-07-31T01:25:08;100517.44;;;17.16;100.00
818;BME280;391;51.052;6.954;2023-07-31T01:27:21;100495.50;;;17.08;100.00
818;BME280;391;51.052;6.954;2023-07-31T01:29:34;100512.19;;;17.19;100.00
818;BME280;391;51.052;6.954;2023-07-31T01:31:43;100516.56;;;17.17;100.00
818;BME280;391;51.052;6.954;2023-07-31T01:33:50;100504.28;;;17.11;100.00
818;BME280;391;51.052;6.954;2023-07-31T01:35:56;100510.41;;;17.18;100.00
818;BME280;391;51.052;6.954;2023-07-31T01:38:00;100513.03;;;17.24;100.00
818;BME280;391;51.052;6.954;2023-07-31T01:40:06;100470.94;;;16.95;100.00
818;BME280;391;51.052;6.954;2023-07-31T01:42:10;100513.94;;;17.18;100.00
818;BME280;391;51.052;6.954;2023-07-31T01:44:15;100513.91;;;17.21;100.00
818;BME280;391;51.052;6.954;2023-07-31T01:46:18;100535.88;;;17.22;100.00
818;BME280;391;51.052;6.954;2023-07-31T01:48:22;100519.19;;;17.24;100.00
818;BME280;391;51.052;6.954;2023-07-31T01:50:31;100513.03;;;17.24;100.00
818;BME280;391;51.052;6.954;2023-07-31T01:52:34;100509.53;;;17.19;100.00
818;BME280;391;51.052;6.954;2023-07-31T01:54:38;100505.13;;;17.18;100.00
818;BME280;391;51.052;6.954;2023-07-31T01:56:43;100511.28;;;17.27;100.00
818;BME280;391;51.052;6.954;2023-07-31T01:58:46;100514.81;;;17.22;100.00
818;BME280;391;51.052;6.954;2023-07-31T02:00:50;100505.13;;;17.21;100.00
818;BME280;391;51.052;6.954;2023-07-31T02:02:53;100506.88;;;17.20;100.00
818;BME280;391;51.052;6.954;2023-07-31T02:04:57;100500.75;;;17.15;100.00
818;BME280;391;51.052;6.954;2023-07-31T02:07:01;100499.88;;;17.19;100.00
818;BME280;391;51.052;6.954;2023-07-31T02:09:04;100502.50;;;17.21;100.00
818;BME280;391;51.052;6.954;2023-07-31T02:11:08;100498.13;;;17.20;100.00
818;BME280;391;51.052;6.954;2023-07-31T02:13:11;100495.50;;;17.23;100.00
818;BME280;391;51.052;6.954;2023-07-31T02:15:14;100498.97;;;17.26;100.00
818;BME280;391;51.052;6.954;2023-07-31T02:17:19;100494.59;;;17.24;100.00
818;BME280;391;51.052;6.954;2023-07-31T02:19:23;100494.59;;;17.25;100.00
818;BME280;391;51.052;6.954;2023-07-31T02:21:27;100486.66;;;17.27;100.00
818;BME280;391;51.052;6.954;2023-07-31T02:23:30;100420.03;;;16.88;100.00
818;BME280;391;51.052;6.954;2023-07-31T02:25:34;100480.53;;;17.23;100.00
818;BME280;391;51.052;6.954;2023-07-31T02:27:38;100486.69;;;17.28;100.00
818;BME280;391;51.052;6.954;2023-07-31T02:29:42;100483.16;;;17.28;100.00
818;BME280;391;51.052;6.954;2023-07-31T02:31:47;100488.41;;;17.29;100.00
818;BME280;391;51.052;6.954;2023-07-31T02:33:52;100474.38;;;17.30;100.00
818;BME280;391;51.052;6.954;2023-07-31T02:35:56;100482.28;;;17.27;100.00
818;BME280;391;51.052;6.954;2023-07-31T02:37:59;100484.94;;;17.29;100.00
818;BME280;391;51.052;6.954;2023-07-31T02:40:03;100485.81;;;17.25;100.00
818;BME280;391;51.052;6.954;2023-07-31T02:42:06;100477.88;;;17.26;100.00
818;BME280;391;51.052;6.954;2023-07-31T02:44:09;100481.38;;;17.33;100.00
818;BME280;391;51.052;6.954;2023-07-31T02:46:17;100481.41;;;17.31;100.00
818;BME280;391;51.052;6.954;2023-07-31T02:48:21;100476.16;;;17.28;100.00
818;BME280;391;51.052;6.954;2023-07-31T02:50:25;100473.50;;;17.31;100.00
818;BME280;391;51.052;6.954;2023-07-31T02:52:30;100470.84;;;17.33;100.00
818;BME280;391;51.052;6.954;2023-07-31T02:54:33;100474.38;;;17.32;100.00
818;BME280;391;51.052;6.954;2023-07-31T02:56:38;100466.47;;;17.32;100.00
818;BME280;391;51.052;6.954;2023-07-31T02:58:41;100468.22;;;17.31;100.00
818;BME280;391;51.052;6.954;2023-07-31T03:00:45;100462.94;;;17.36;100.00
818;BME280;391;51.052;6.954;2023-07-31T03:02:49;100464.69;;;17.34;100.00
818;BME280;391;51.052;6.954;2023-07-31T03:04:52;100465.56;;;17.36;100.00
818;BME280;391;51.052;6.954;2023-07-31T03:06:58;100461.19;;;17.32;100.00
818;BME280;391;51.052;6.954;2023-07-31T03:09:01;100463.84;;;17.32;100.00
818;BME280;391;51.052;6.954;2023-07-31T03:11:04;100427.88;;;17.19;100.00
818;BME280;391;51.052;6.954;2023-07-31T03:13:07;100449.75;;;17.33;100.00
818;BME280;391;51.052;6.954;2023-07-31T03:15:11;100453.28;;;17.38;100.00
818;BME280;391;51.052;6.954;2023-07-31T03:17:14;100421.72;;;17.23;100.00
818;BME280;391;51.052;6.954;2023-07-31T03:19:18;100449.75;;;17.36;100.00
818;BME280;391;51.052;6.954;2023-07-31T03:21:22;100440.09;;;17.41;100.00
818;BME280;391;51.052;6.954;2023-07-31T03:23:27;100434.81;;;17.33;100.00
818;BME280;391;51.052;6.954;2023-07-31T03:25:31;100442.75;;;17.35;100.00
818;BME280;391;51.052;6.954;2023-07-31T03:27:34;100442.72;;;17.38;100.00
818;BME280;391;51.052;6.954;2023-07-31T03:29:38;100437.47;;;17.35;100.00
818;BME280;391;51.052;6.954;2023-07-31T03:31:41;100429.59;;;17.26;100.00
818;BME280;391;51.052;6.954;2023-07-31T03:33:44;100436.56;;;17.36;100.00
818;BME280;391;51.052;6.954;2023-07-31T03:35:48;100438.34;;;17.37;100.00
818;BME280;391;51.052;6.954;2023-07-31T03:37:51;100437.47;;;17.38;100.00
818;BME280;391;51.052;6.954;2023-07-31T03:39:56;100442.72;;;17.39;100.00
818;BME280;391;51.052;6.954;2023-07-31T03:42:01;100426.03;;;17.37;100.00
818;BME280;391;51.052;6.954;2023-07-31T03:44:04;100436.56;;;17.42;100.00
818;BME280;391;51.052;6.954;2023-07-31T03:46:08;100434.78;;;17.42;100.00
818;BME280;391;51.052;6.954;2023-07-31T03:48:11;100426.03;;;17.34;100.00
818;BME280;391;51.052;6.954;2023-07-31T03:50:15;100435.72;;;17.26;100.00
818;BME280;391;51.052;6.954;2023-07-31T03:52:19;100428.72;;;17.28;100.00
818;BME280;391;51.052;6.954;2023-07-31T03:54:22;100434.00;;;17.25;100.00
818;BME280;391;51.052;6.954;2023-07-31T03:56:27;100426.94;;;17.27;100.00
818;BME280;391;51.052;6.954;2023-07-31T03:58:29;100426.97;;;17.24;100.00
818;BME280;391;51.052;6.954;2023-07-31T04:00:34;100430.47;;;17.25;100.00
818;BME280;391;51.052;6.954;2023-07-31T04:02:37;100411.16;;;17.21;100.00
818;BME280;391;51.052;6.954;2023-07-31T04:04:41;100420.78;;;17.31;100.00
818;BME280;391;51.052;6.954;2023-07-31T04:06:44;100422.53;;;17.29;100.00
818;BME280;391;51.052;6.954;2023-07-31T04:08:48;100415.53;;;17.28;100.00
818;BME280;391;51.052;6.954;2023-07-31T04:10:52;100419.91;;;17.28;100.00
818;BME280;391;51.052;6.954;2023-07-31T04:12:57;100409.41;;;17.25;100.00
818;BME280;391;51.052;6.954;2023-07-31T04:15:01;100417.28;;;17.31;100.00
818;BME280;391;51.052;6.954;2023-07-31T04:17:12;100420.78;;;17.34;100.00
818;BME280;391;51.052;6.954;2023-07-31T04:19:20;100413.75;;;17.35;100.00
818;BME280;391;51.052;6.954;2023-07-31T04:21:24;100414.63;;;17.34;100.00
818;BME280;391;51.052;6.954;2023-07-31T04:23:31;100415.50;;;17.30;100.00
818;BME280;391;51.052;6.954;2023-07-31T04:25:36;100411.13;;;17.30;100.00
818;BME280;391;51.052;6.954;2023-07-31T04:27:39;100412.00;;;17.32;100.00
818;BME280;391;51.052;6.954;2023-07-31T04:29:45;100401.44;;;17.29;100.00
818;BME280;391;51.052;6.954;2023-07-31T04:31:49;100408.50;;;17.27;100.00
818;BME280;391;51.052;6.954;2023-07-31T04:33:53;100400.59;;;17.27;100.00
818;BME280;391;51.052;6.954;2023-07-31T04:35:57;100404.13;;;17.25;100.00
818;BME280;391;51.052;6.954;2023-07-31T04:38:00;100362.03;;;16.98;100.00
818;BME280;391;51.052;6.954;2023-07-31T04:40:05;100403.25;;;17.21;100.00
818;BME280;391;51.052;6.954;2023-07-31T04:42:09;100406.75;;;17.20;100.00
818;BME280;391;51.052;6.954;2023-07-31T04:44:13;100395.38;;;17.15;100.00
818;BME280;391;51.052;6.954;2023-07-31T04:46:18;100400.63;;;17.17;100.00
818;BME280;391;51.052;6.954;2023-07-31T04:48:21;100399.75;;;17.18;100.00
818;BME280;391;51.052;6.954;2023-07-31T04:50:25;100403.25;;;17.18;100.00
818;BME280;391;51.052;6.954;2023-07-31T04:52:30;100394.50;;;17.16;100.00
818;BME280;391;51.052;6.954;2023-07-31T04:54:33;100405.00;;;17.21;100.00
818;BME280;391;51.052;6.954;2023-07-31T04:56:37;100393.59;;;17.19;100.00
818;BME280;391;51.052;6.954;2023-07-31T04:58:41;100410.28;;;17.22;100.00
818;BME280;391;51.052;6.954;2023-07-31T05:00:44;100393.59;;;17.25;100.00
818;BME280;391;51.052;6.954;2023-07-31T05:02:49;100390.09;;;17.23;100.00
818;BME280;391;51.052;6.954;2023-07-31T05:04:53;100388.31;;;17.22;100.00
818;BME280;391;51.052;6.954;2023-07-31T05:06:56;100369.88;;;17.17;100.00
818;BME280;391;51.052;6.954;2023-07-31T05:09:00;100376.91;;;17.21;100.00
818;BME280;391;51.052;6.954;2023-07-31T05:11:04;100372.53;;;17.19;100.00
818;BME280;391;51.052;6.954;2023-07-31T05:13:08;100367.25;;;17.22;100.00
818;BME280;391;51.052;6.954;2023-07-31T05:15:11;100361.09;;;17.21;100.00
818;BME280;391;51.052;6.954;2023-07-31T05:17:16;100361.97;;;17.25;100.00
818;BME280;391;51.052;6.954;2023-07-31T05:19:21;100362.81;;;17.27;100.00
818;BME280;391;51.052;6.954;2023-07-31T05:21:25;100362.78;;;17.37;100.00
818;BME280;391;51.052;6.954;2023-07-31T05:23:28;100361.03;;;17.36;100.00
818;BME280;391;51.052;6.954;2023-07-31T05:25:33;100360.13;;;17.40;100.00
818;BME280;391;51.052;6.954;2023-07-31T05:27:37;100356.59;;;17.44;100.00
818;BME280;391;51.052;6.954;2023-07-31T05:29:40;100353.94;;;17.46;100.00
818;BME280;391;51.052;6.954;2023-07-31T05:31:44;100348.63;;;17.52;100.00
818;BME280;391;51.052;6.954;2023-07-31T05:33:47;100348.66;;;17.57;100.00
818;BME280;391;51.052;6.954;2023-07-31T05:35:53;100333.72;;;17.56;100.00
818;BME280;391;51.052;6.954;2023-07-31T05:37:56;100337.22;;;17.59;100.00
818;BME280;391;51.052;6.954;2023-07-31T05:40:00;100340.72;;;17.64;100.00
818;BME280;391;51.052;6.954;2023-07-31T05:42:03;100330.13;;;17.66;100.00
818;BME280;391;51.052;6.954;2023-07-31T05:44:07;100323.97;;;17.65;100.00
818;BME280;391;51.052;6.954;2023-07-31T05:46:10;100323.97;;;17.70;100.00
818;BME280;391;51.052;6.954;2023-07-31T05:48:15;100322.19;;;17.69;100.00
818;BME280;391;51.052;6.954;2023-07-31T05:50:18;100307.28;;;17.66;100.00
818;BME280;391;51.052;6.954;2023-07-31T05:52:23;100310.78;;;17.70;100.00
818;BME280;391;51.052;6.954;2023-07-31T05:54:26;100309.00;;;17.73;100.00
818;BME280;391;51.052;6.954;2023-07-31T05:56:30;100312.50;;;17.75;100.00
818;BME280;391;51.052;6.954;2023-07-31T05:58:35;100315.19;;;17.71;100.00
818;BME280;391;51.052;6.954;2023-07-31T06:00:41;100309.03;;;17.70;100.00
818;BME280;391;51.052;6.954;2023-07-31T06:02:44;100314.28;;;17.70;100.00
818;BME280;391;51.052;6.954;2023-07-31T06:04:48;100309.94;;;17.63;100.00
818;BME280;391;51.052;6.954;2023-07-31T06:06:52;100323.97;;;17.65;100.00
818;BME280;391;51.052;6.954;2023-07-31T06:08:57;100321.38;;;17.62;100.00
818;BME280;391;51.052;6.954;2023-07-31T06:11:00;100313.50;;;17.56;100.00
818;BME280;391;51.052;6.954;2023-07-31T06:13:04;100322.28;;;17.51;100.00
818;BME280;391;51.052;6.954;2023-07-31T06:15:07;100322.38;;;17.37;100.00
818;BME280;391;51.052;6.954;2023-07-31T06:17:12;100326.81;;;17.29;100.00
818;BME280;391;51.052;6.954;2023-07-31T06:19:15;100321.56;;;17.24;100.00
818;BME280;391;51.052;6.954;2023-07-31T06:21:18;100315.44;;;17.22;100.00
818;BME280;391;51.052;6.954;2023-07-31T06:23:22;100314.53;;;17.25;100.00
818;BME280;391;51.052;6.954;2023-07-31T06:25:26;100309.25;;;17.28;100.00
818;BME280;391;51.052;6.954;2023-07-31T06:27:30;100313.66;;;17.24;100.00
818;BME280;391;51.052;6.954;2023-07-31T06:29:33;100311.88;;;17.26;100.00
818;BME280;391;51.052;6.954;2023-07-31T06:31:37;100311.88;;;17.23;100.00
818;BME280;391;51.052;6.954;2023-07-31T06:33:40;100313.66;;;17.24;100.00
818;BME280;391;51.052;6.954;2023-07-31T06:35:44;100301.38;;;17.20;100.00
818;BME280;391;51.052;6.954;2023-07-31T06:37:47;100309.28;;;17.22;100.00
818;BME280;391;51.052;6.954;2023-07-31T06:39:51;100311.03;;;17.21;100.00
818;BME280;391;51.052;6.954;2023-07-31T06:41:56;100313.69;;;17.23;100.00
818;BME280;391;51.052;6.954;2023-07-31T06:44:00;100307.50;;;17.21;100.00
818;BME280;391;51.052;6.954;2023-07-31T06:46:05;100306.66;;;17.17;100.00
818;BME280;391;51.052;6.954;2023-07-31T06:48:11;100301.34;;;17.23;100.00
818;BME280;391;51.052;6.954;2023-07-31T06:50:14;100305.75;;;17.24;100.00
818;BME280;391;51.052;6.954;2023-07-31T06:52:18;100304.84;;;17.27;100.00
818;BME280;391;51.052;6.954;2023-07-31T06:54:22;100290.78;;;17.28;100.00
818;BME280;391;51.052;6.954;2023-07-31T06:56:25;100307.41;;;17.39;100.00
818;BME280;391;51.052;6.954;2023-07-31T06:58:31;100293.41;;;17.32;100.00
818;BME280;391;51.052;6.954;2023-07-31T07:00:35;100309.16;;;17.40;100.00
818;BME280;391;51.052;6.954;2023-07-31T07:02:42;100290.78;;;17.35;100.00
818;BME280;391;51.052;6.954;2023-07-31T07:04:46;100302.13;;;17.39;100.00
818;BME280;391;51.052;6.954;2023-07-31T07:06:49;100309.16;;;17.44;100.00
818;BME280;391;51.052;6.954;2023-07-31T07:08:53;100307.41;;;17.45;100.00
818;BME280;391;51.052;6.954;2023-07-31T07:10:57;100309.13;;;17.46;100.00
818;BME280;391;51.052;6.954;2023-07-31T07:13:00;100293.34;;;17.40;100.00
818;BME280;391;51.052;6.954;2023-07-31T07:15:06;100307.38;;;17.48;100.00
818;BME280;391;51.052;6.954;2023-07-31T07:17:10;100300.34;;;17.45;100.00
818;BME280;391;51.052;6.954;2023-07-31T07:19:13;100304.75;;;17.48;100.00
818;BME280;391;51.052;6.954;2023-07-31T07:21:17;100294.19;;;17.48;100.00
818;BME280;391;51.052;6.954;2023-07-31T07:23:20;100291.53;;;17.51;100.00
818;BME280;391;51.052;6.954;2023-07-31T07:25:23;100307.38;;;17.51;100.00
818;BME280;391;51.052;6.954;2023-07-31T07:27:28;100298.53;;;17.52;100.00
818;BME280;391;51.052;6.954;2023-07-31T07:29:33;100279.31;;;17.41;100.00
818;BME280;391;51.052;6.954;2023-07-31T07:31:38;100297.72;;;17.45;100.00
818;BME280;391;51.052;6.954;2023-07-31T07:33:42;100292.44;;;17.42;100.00
818;BME280;391;51.052;6.954;2023-07-31T07:35:46;100296.00;;;17.40;100.00
818;BME280;391;51.052;6.954;2023-07-31T07:37:50;100304.81;;;17.34;100.00
818;BME280;391;51.052;6.954;2023-07-31T07:39:54;100294.38;;;17.16;100.00
818;BME280;391;51.052;6.954;2023-07-31T07:41:58;100296.97;;;17.21;100.00
818;BME280;391;51.052;6.954;2023-07-31T07:44:00;100304.03;;;17.16;100.00
818;BME280;391;51.052;6.954;2023-07-31T07:46:07;100284.81;;;17.00;100.00
818;BME280;391;51.052;6.954;2023-07-31T07:48:12;100302.34;;;17.06;100.00
818;BME280;391;51.052;6.954;2023-07-31T07:50:16;100297.97;;;17.03;100.00
818;BME280;391;51.052;6.954;2023-07-31T07:52:21;100283.09;;;16.90;100.00
818;BME280;391;51.052;6.954;2023-07-31T07:54:24;100312.00;;;16.98;100.00
818;BME280;391;51.052;6.954;2023-07-31T07:56:27;100298.88;;;16.91;100.00
818;BME280;391;51.052;6.954;2023-07-31T07:58:31;100272.53;;;16.88;100.00
818;BME280;391;51.052;6.954;2023-07-31T08:00:35;100295.31;;;16.99;100.00
818;BME280;391;51.052;6.954;2023-07-31T08:02:38;100271.66;;;16.88;100.00
818;BME280;391;51.052;6.954;2023-07-31T08:04:43;100305.88;;;16.99;100.00
818;BME280;391;51.052;6.954;2023-07-31T08:06:46;100304.13;;;16.99;100.00
818;BME280;391;51.052;6.954;2023-07-31T08:08:50;100297.13;;;16.93;100.00
818;BME280;391;51.052;6.954;2023-07-31T08:10:53;100310.28;;;16.97;100.00
818;BME280;391;51.052;6.954;2023-07-31T08:12:57;100314.69;;;16.93;100.00
818;BME280;391;51.052;6.954;2023-07-31T08:15:01;100303.25;;;16.88;100.00
818;BME280;391;51.052;6.954;2023-07-31T08:17:04;100306.81;;;16.82;100.00
818;BME280;391;51.052;6.954;2023-07-31T08:19:08;100290.13;;;16.79;100.00
818;BME280;391;51.052;6.954;2023-07-31T08:21:16;100291.91;;;16.80;100.00
818;BME280;391;51.052;6.954;2023-07-31T08:23:20;100281.38;;;16.75;100.00
818;BME280;391;51.052;6.954;2023-07-31T08:25:25;100278.75;;;16.72;100.00
818;BME280;391;51.052;6.954;2023-07-31T08:27:28;100265.59;;;16.72;100.00
818;BME280;391;51.052;6.954;2023-07-31T08:29:32;100269.94;;;16.82;100.00
818;BME280;391;51.052;6.954;2023-07-31T08:31:35;100265.56;;;16.84;100.00
818;BME280;391;51.052;6.954;2023-07-31T08:33:39;100241.03;;;16.69;100.00
818;BME280;391;51.052;6.954;2023-07-31T08:35:43;100264.66;;;16.85;100.00
818;BME280;391;51.052;6.954;2023-07-31T08:37:48;100257.63;;;16.89;100.00
818;BME280;391;51.052;6.954;2023-07-31T08:39:52;100265.53;;;16.90;100.00
818;BME280;391;51.052;6.954;2023-07-31T08:41:58;100260.25;;;16.93;100.00
818;BME280;391;51.052;6.954;2023-07-31T08:44:02;100226.06;;;16.80;100.00
818;BME280;391;51.052;6.954;2023-07-31T08:46:05;100225.19;;;16.84;100.00
818;BME280;391;51.052;6.954;2023-07-31T08:48:11;100242.69;;;16.92;100.00
818;BME280;391;51.052;6.954;2023-07-31T08:50:17;100251.44;;;16.99;100.00
818;BME280;391;51.052;6.954;2023-07-31T08:52:21;100241.78;;;17.00;100.00
818;BME280;391;51.052;6.954;2023-07-31T08:54:26;100240.00;;;17.03;100.00
818;BME280;391;51.052;6.954;2023-07-31T08:56:36;100248.78;;;17.02;100.00
818;BME280;391;51.052;6.954;2023-07-31T08:58:43;100250.53;;;17.06;100.00
818;BME280;391;51.052;6.954;2023-07-31T09:00:48;100233.00;;;17.04;100.00
818;BME280;391;51.052;6.954;2023-07-31T09:02:59;100251.31;;;17.17;100.00
818;BME280;391;51.052;6.954;2023-07-31T09:05:05;100246.06;;;17.19;100.00
818;BME280;391;51.052;6.954;2023-07-31T09:07:09;100253.88;;;17.31;100.00
818;BME280;391;51.052;6.954;2023-07-31T09:09:16;100256.53;;;17.32;100.00
818;BME280;391;51.052;6.954;2023-07-31T09:11:21;100200.50;;;16.99;100.00
818;BME280;391;51.052;6.954;2023-07-31T09:13:24;100258.25;;;17.33;100.00
818;BME280;391;51.052;6.954;2023-07-31T09:15:28;100268.78;;;17.38;100.00
818;BME280;391;51.052;6.954;2023-07-31T09:17:39;100271.34;;;17.47;100.00
818;BME280;391;51.052;6.954;2023-07-31T09:19:43;100263.47;;;17.44;100.00
818;BME280;391;51.052;6.954;2023-07-31T09:21:48;100276.59;;;17.48;100.00
818;BME280;391;51.052;6.954;2023-07-31T09:23:52;100269.63;;;17.41;100.00
818;BME280;391;51.052;6.954;2023-07-31T09:25:56;100263.47;;;17.42;100.00
818;BME280;391;51.052;6.954;2023-07-31T09:28:03;100274.03;;;17.39;100.00
818;BME280;391;51.052;6.954;2023-07-31T09:30:08;100263.50;;;17.41;100.00
818;BME280;391;51.052;6.954;2023-07-31T09:32:15;100241.59;;;17.27;100.00
818;BME280;391;51.052;6.954;2023-07-31T09:34:20;100178.53;;;17.03;100.00
818;BME280;391;51.052;6.954;2023-07-31T09:36:24;100242.31;;;17.55;100.00
818;BME280;391;51.052;6.954;2023-07-31T09:38:30;100250.19;;;17.64;100.00
818;BME280;391;51.052;6.954;2023-07-31T09:40:34;100247.50;;;17.65;100.00
818;BME280;391;51.052;6.954;2023-07-31T09:42:38;100238.72;;;17.71;100.00
818;BME280;391;51.052;6.954;2023-07-31T09:44:43;100236.88;;;17.74;100.00
818;BME280;391;51.052;6.954;2023-07-31T09:46:47;100243.88;;;17.81;100.00
818;BME280;391;51.052;6.954;2023-07-31T09:48:51;100228.03;;;17.83;100.00
818;BME280;391;51.052;6.954;2023-07-31T09:50:54;100227.13;;;17.88;100.00
818;BME280;391;51.052;6.954;2023-07-31T09:52:58;100230.47;;;18.04;100.00
818;BME280;391;51.052;6.954;2023-07-31T09:55:01;100232.25;;;18.04;100.00
818;BME280;391;51.052;6.954;2023-07-31T09:57:05;100227.00;;;18.02;100.00
818;BME280;391;51.052;6.954;2023-07-31T09:59:11;100225.19;;;18.04;100.00
818;BME280;391;51.052;6.954;2023-07-31T10:01:17;100226.91;;;18.10;100.00
818;BME280;391;51.052;6.954;2023-07-31T10:03:20;100220.75;;;18.11;100.00
818;BME280;391;51.052;6.954;2023-07-31T10:05:29;100227.69;;;18.21;100.00
818;BME280;391;51.052;6.954;2023-07-31T10:07:37;100211.84;;;18.21;100.00
818;BME280;391;51.052;6.954;2023-07-31T10:09:42;100218.84;;;18.25;100.00
818;BME280;391;51.052;6.954;2023-07-31T10:11:47;100224.06;;;18.31;100.00
818;BME280;391;51.052;6.954;2023-07-31T10:13:55;100211.66;;;18.37;100.00
818;BME280;391;51.052;6.954;2023-07-31T10:16:00;100221.31;;;18.38;100.00
818;BME280;391;51.052;6.954;2023-07-31T10:18:06;100225.69;;;18.44;100.00
818;BME280;391;51.052;6.954;2023-07-31T10:20:10;100221.19;;;18.52;100.00
818;BME280;391;51.052;6.954;2023-07-31T10:22:14;100229.00;;;18.63;97.80
818;BME280;391;51.052;6.954;2023-07-31T10:24:19;100230.69;;;18.68;95.75
818;BME280;391;51.052;6.954;2023-07-31T10:26:23;100240.28;;;18.75;96.32
818;BME280;391;51.052;6.954;2023-07-31T10:28:29;100222.75;;;18.67;95.76
818;BME280;391;51.052;6.954;2023-07-31T10:30:33;100231.56;;;18.67;96.47
818;BME280;391;51.052;6.954;2023-07-31T10:32:41;100242.22;;;18.63;97.38
818;BME280;391;51.052;6.954;2023-07-31T10:34:49;100226.50;;;18.46;99.97
818;BME280;391;51.052;6.954;2023-07-31T10:37:19;100225.72;;;18.41;100.00
818;BME280;391;51.052;6.954;2023-07-31T10:39:34;100226.66;;;18.32;100.00
818;BME280;391;51.052;6.954;2023-07-31T10:41:38;100207.34;;;18.29;100.00
818;BME280;391;51.052;6.954;2023-07-31T10:43:45;100211.84;;;18.19;100.00
818;BME280;391;51.052;6.954;2023-07-31T10:45:49;100211.84;;;18.19;100.00
818;BME280;391;51.052;6.954;2023-07-31T10:47:58;100196.94;;;18.18;100.00
818;BME280;391;51.052;6.954;2023-07-31T10:50:21;100216.03;;;18.40;100.00
818;BME280;391;51.052;6.954;2023-07-31T10:52:34;100203.75;;;18.36;100.00
818;BME280;391;51.052;6.954;2023-07-31T10:54:38;100209.84;;;18.42;100.00
818;BME280;391;51.052;6.954;2023-07-31T10:56:44;100208.06;;;18.43;100.00
818;BME280;391;51.052;6.954;2023-07-31T10:59:00;100201.06;;;18.39;100.00
818;BME280;391;51.052;6.954;2023-07-31T11:01:06;100217.75;;;18.42;100.00
818;BME280;391;51.052;6.954;2023-07-31T11:03:12;100216.78;;;18.51;100.00
818;BME280;391;51.052;6.954;2023-07-31T11:05:16;100216.88;;;18.42;100.00
818;BME280;391;51.052;6.954;2023-07-31T11:07:20;100214.25;;;18.42;100.00
818;BME280;391;51.052;6.954;2023-07-31T11:09:27;100215.03;;;18.48;100.00
818;BME280;391;51.052;6.954;2023-07-31T11:11:36;100210.56;;;18.58;100.00
818;BME280;391;51.052;6.954;2023-07-31T11:13:41;100202.44;;;18.73;100.00
818;BME280;391;51.052;6.954;2023-07-31T11:15:45;100201.59;;;18.71;100.00
818;BME280;391;51.052;6.954;2023-07-31T11:17:48;100212.03;;;18.82;100.00
818;BME280;391;51.052;6.954;2023-07-31T11:19:51;100206.50;;;19.00;100.00
818;BME280;391;51.052;6.954;2023-07-31T11:21:55;100207.31;;;19.02;100.00